sensor_id;sensor_type;location;lat;lon;timestamp;pressure;altitude;pressure_sealevel;temperature;humidity
6196;BME280;3131;42.630;23.382;2022-11-20T00:02:07;93733.90;;;12.86;100.00
6196;BME280;3131;42.630;23.382;2022-11-20T00:04:36;93703.07;;;12.87;100.00
6196;BME280;3131;42.630;23.382;2022-11-20T00:07:05;93692.88;;;12.92;100.00
6196;BME280;3131;42.630;23.382;2022-11-20T00:09:35;93694.41;;;12.99;100.00
6196;BME280;3131;42.630;23.382;2022-11-20T00:14:52;93687.14;;;13.00;100.00
6196;BME280;3131;42.630;23.382;2022-11-20T00:17:21;93694.56;;;12.97;100.00
6196;BME280;3131;42.630;23.382;2022-11-20T00:19:51;93709.74;;;12.97;100.00
6196;BME280;3131;42.630;23.382;2022-11-20T00:22:20;93698.94;;;13.05;100.00
6196;BME280;3131;42.630;23.382;2022-11-20T00:24:49;93679.62;;;13.14;100.00
6196;BME280;3131;42.630;23.382;2022-11-20T00:27:19;93694.12;;;13.31;100.00
6196;BME280;3131;42.630;23.382;2022-11-20T00:29:49;93690.08;;;13.58;100.00
6196;BME280;3131;42.630;23.382;2022-11-20T00:32:19;93689.48;;;13.87;100.00
6196;BME280;3131;42.630;23.382;2022-11-20T00:34:48;93691.55;;;14.02;100.00
6196;BME280;3131;42.630;23.382;2022-11-20T00:40:05;93693.32;;;14.47;100.00
6196;BME280;3131;42.630;23.382;2022-11-20T00:42:34;93696.33;;;14.46;100.00
6196;BME280;3131;42.630;23.382;2022-11-20T00:45:05;93716.24;;;14.41;100.00
6196;BME280;3131;42.630;23.382;2022-11-20T00:47:35;93711.42;;;14.34;100.00
6196;BME280;3131;42.630;23.382;2022-11-20T00:50:05;93697.87;;;14.29;100.00
6196;BME280;3131;42.630;23.382;2022-11-20T00:52:36;93710.24;;;14.28;100.00
6196;BME280;3131;42.630;23.382;2022-11-20T00:55:07;93728.22;;;14.35;100.00
6196;BME280;3131;42.630;23.382;2022-11-20T00:57:36;93752.88;;;14.29;100.00
6196;BME280;3131;42.630;23.382;2022-11-20T01:00:08;93724.79;;;14.26;100.00
6196;BME280;3131;42.630;23.382;2022-11-20T01:02:37;93722.25;;;14.26;100.00
6196;BME280;3131;42.630;23.382;2022-11-20T01:05:07;93723.62;;;14.34;100.00
6196;BME280;3131;42.630;23.382;2022-11-20T01:07:37;93721.25;;;14.65;100.00
6196;BME280;3131;42.630;23.382;2022-11-20T01:10:07;93731.27;;;15.02;100.00
6196;BME280;3131;42.630;23.382;2022-11-20T01:12:37;93702.36;;;15.17;100.00
6196;BME280;3131;42.630;23.382;2022-11-20T01:15:08;93721.88;;;15.16;100.00
6196;BME280;3131;42.630;23.382;2022-11-20T01:17:37;93733.92;;;15.14;100.00
6196;BME280;3131;42.630;23.382;2022-11-20T01:20:09;93733.76;;;15.16;100.00
6196;BME280;3131;42.630;23.382;2022-11-20T01:22:39;93691.50;;;15.06;100.00
6196;BME280;3131;42.630;23.382;2022-11-20T01:25:09;93721.13;;;15.24;100.00
6196;BME280;3131;42.630;23.382;2022-11-20T01:27:38;93708.59;;;15.22;100.00
6196;BME280;3131;42.630;23.382;2022-11-20T01:30:10;93713.53;;;15.06;100.00
6196;BME280;3131;42.630;23.382;2022-11-20T01:32:39;93697.08;;;14.92;100.00
6196;BME280;3131;42.630;23.382;2022-11-20T01:35:09;93673.84;;;14.83;100.00
6196;BME280;3131;42.630;23.382;2022-11-20T01:37:38;93672.17;;;14.74;100.00
6196;BME280;3131;42.630;23.382;2022-11-20T01:40:10;93672.28;;;14.68;100.00
6196;BME280;3131;42.630;23.382;2022-11-20T01:42:44;93647.14;;;14.57;100.00
6196;BME280;3131;42.630;23.382;2022-11-20T01:45:57;93662.84;;;14.56;100.00
6196;BME280;3131;42.630;23.382;2022-11-20T01:48:30;93657.29;;;14.57;100.00
6196;BME280;3131;42.630;23.382;2022-11-20T01:51:00;93669.02;;;14.58;100.00
6196;BME280;3131;42.630;23.382;2022-11-20T01:53:33;93665.13;;;14.50;100.00
6196;BME280;3131;42.630;23.382;2022-11-20T01:56:07;93650.80;;;14.45;100.00
6196;BME280;3131;42.630;23.382;2022-11-20T01:58:38;93653.88;;;14.34;100.00
6196;BME280;3131;42.630;23.382;2022-11-20T02:01:09;93661.68;;;14.23;100.00
6196;BME280;3131;42.630;23.382;2022-11-20T02:03:38;93645.41;;;14.12;100.00
6196;BME280;3131;42.630;23.382;2022-11-20T02:06:11;93646.69;;;14.12;100.00
6196;BME280;3131;42.630;23.382;2022-11-20T02:08:41;93652.87;;;14.13;100.00
6196;BME280;3131;42.630;23.382;2022-11-20T02:11:10;93659.49;;;14.24;100.00
6196;BME280;3131;42.630;23.382;2022-11-20T02:13:41;93678.55;;;14.28;100.00
6196;BME280;3131;42.630;23.382;2022-11-20T02:16:17;93680.38;;;14.22;100.00
6196;BME280;3131;42.630;23.382;2022-11-20T02:18:47;93671.50;;;14.22;100.00
6196;BME280;3131;42.630;23.382;2022-11-20T02:21:28;93674.83;;;14.23;100.00
6196;BME280;3131;42.630;23.382;2022-11-20T02:24:02;93670.23;;;14.22;100.00
6196;BME280;3131;42.630;23.382;2022-11-20T02:26:35;93664.95;;;15.01;100.00
6196;BME280;3131;42.630;23.382;2022-11-20T02:29:04;93671.69;;;15.66;100.00
6196;BME280;3131;42.630;23.382;2022-11-20T02:31:40;93682.91;;;15.82;100.00
6196;BME280;3131;42.630;23.382;2022-11-20T02:34:10;93677.09;;;15.89;100.00
6196;BME280;3131;42.630;23.382;2022-11-20T02:36:40;93681.41;;;16.01;100.00
6196;BME280;3131;42.630;23.382;2022-11-20T02:39:11;93669.48;;;16.01;100.00
6196;BME280;3131;42.630;23.382;2022-11-20T02:41:40;93669.69;;;16.08;100.00
6196;BME280;3131;42.630;23.382;2022-11-20T02:44:10;93673.20;;;16.11;100.00
6196;BME280;3131;42.630;23.382;2022-11-20T02:46:39;93678.64;;;16.29;100.00
6196;BME280;3131;42.630;23.382;2022-11-20T02:49:09;93687.41;;;16.42;100.00
6196;BME280;3131;42.630;23.382;2022-11-20T02:51:38;93661.17;;;16.38;100.00
6196;BME280;3131;42.630;23.382;2022-11-20T02:54:07;93703.02;;;16.43;100.00
6196;BME280;3131;42.630;23.382;2022-11-20T02:56:38;93687.70;;;17.06;100.00
6196;BME280;3131;42.630;23.382;2022-11-20T02:59:08;93671.89;;;17.39;100.00
6196;BME280;3131;42.630;23.382;2022-11-20T03:01:38;93687.31;;;17.67;100.00
6196;BME280;3131;42.630;23.382;2022-11-20T03:04:07;93664.16;;;17.72;100.00
6196;BME280;3131;42.630;23.382;2022-11-20T03:06:37;93698.77;;;17.83;100.00
6196;BME280;3131;42.630;23.382;2022-11-20T03:09:06;93705.70;;;18.05;100.00
6196;BME280;3131;42.630;23.382;2022-11-20T03:11:35;93705.55;;;18.03;100.00
6196;BME280;3131;42.630;23.382;2022-11-20T03:14:05;93700.88;;;18.10;100.00
6196;BME280;3131;42.630;23.382;2022-11-20T03:16:34;93675.78;;;17.95;100.00
6196;BME280;3131;42.630;23.382;2022-11-20T03:19:03;93690.33;;;17.82;100.00
6196;BME280;3131;42.630;23.382;2022-11-20T03:21:34;93677.09;;;17.83;100.00
6196;BME280;3131;42.630;23.382;2022-11-20T03:24:05;93689.48;;;17.98;100.00
6196;BME280;3131;42.630;23.382;2022-11-20T03:26:34;93699.98;;;17.99;100.00
6196;BME280;3131;42.630;23.382;2022-11-20T03:29:05;93697.87;;;18.07;100.00
6196;BME280;3131;42.630;23.382;2022-11-20T03:31:36;93696.31;;;18.02;100.00
6196;BME280;3131;42.630;23.382;2022-11-20T03:34:06;93677.53;;;17.91;100.00
6196;BME280;3131;42.630;23.382;2022-11-20T03:36:38;93691.06;;;17.99;100.00
6196;BME280;3131;42.630;23.382;2022-11-20T03:39:07;93698.58;;;17.93;100.00
6196;BME280;3131;42.630;23.382;2022-11-20T03:41:39;93710.53;;;17.92;100.00
6196;BME280;3131;42.630;23.382;2022-11-20T03:44:09;93688.02;;;18.00;100.00
6196;BME280;3131;42.630;23.382;2022-11-20T03:46:39;93710.50;;;18.00;100.00
6196;BME280;3131;42.630;23.382;2022-11-20T03:49:09;93689.47;;;17.94;100.00
6196;BME280;3131;42.630;23.382;2022-11-20T03:51:38;93710.02;;;18.05;100.00
6196;BME280;3131;42.630;23.382;2022-11-20T03:54:08;93723.89;;;18.02;100.00
6196;BME280;3131;42.630;23.382;2022-11-20T03:56:38;93704.47;;;17.93;100.00
6196;BME280;3131;42.630;23.382;2022-11-20T03:59:10;93710.20;;;17.95;100.00
6196;BME280;3131;42.630;23.382;2022-11-20T04:01:39;93712.44;;;17.98;100.00
6196;BME280;3131;42.630;23.382;2022-11-20T04:04:09;93726.78;;;17.91;100.00
6196;BME280;3131;42.630;23.382;2022-11-20T04:06:38;93730.25;;;18.06;100.00
6196;BME280;3131;42.630;23.382;2022-11-20T04:09:08;93715.63;;;17.88;100.00
6196;BME280;3131;42.630;23.382;2022-11-20T04:11:39;93724.90;;;17.81;100.00
6196;BME280;3131;42.630;23.382;2022-11-20T04:14:14;93714.05;;;17.87;100.00
6196;BME280;3131;42.630;23.382;2022-11-20T04:16:44;93715.63;;;17.88;100.00
6196;BME280;3131;42.630;23.382;2022-11-20T04:19:15;93729.85;;;17.82;100.00
6196;BME280;3131;42.630;23.382;2022-11-20T04:21:45;93726.19;;;17.77;100.00
6196;BME280;3131;42.630;23.382;2022-11-20T04:24:15;93733.80;;;17.85;100.00
6196;BME280;3131;42.630;23.382;2022-11-20T04:26:44;93738.78;;;17.82;100.00
6196;BME280;3131;42.630;23.382;2022-11-20T04:29:14;93738.60;;;17.84;100.00
6196;BME280;3131;42.630;23.382;2022-11-20T04:31:43;93747.86;;;17.77;100.00
6196;BME280;3131;42.630;23.382;2022-11-20T04:34:13;93760.27;;;17.72;100.00
6196;BME280;3131;42.630;23.382;2022-11-20T04:36:42;93744.50;;;17.76;100.00
6196;BME280;3131;42.630;23.382;2022-11-20T04:39:15;93755.02;;;17.81;100.00
6196;BME280;3131;42.630;23.382;2022-11-20T04:41:45;93751.50;;;17.74;100.00
6196;BME280;3131;42.630;23.382;2022-11-20T04:44:14;93749.93;;;17.61;100.00
6196;BME280;3131;42.630;23.382;2022-11-20T04:46:44;93740.38;;;17.55;100.00
6196;BME280;3131;42.630;23.382;2022-11-20T04:49:13;93731.62;;;17.57;100.00
6196;BME280;3131;42.630;23.382;2022-11-20T04:51:43;93726.36;;;17.55;100.00
6196;BME280;3131;42.630;23.382;2022-11-20T04:54:12;93729.70;;;17.63;100.00
6196;BME280;3131;42.630;23.382;2022-11-20T04:56:41;93733.34;;;17.57;100.00
6196;BME280;3131;42.630;23.382;2022-11-20T04:59:11;93729.41;;;17.38;100.00
6196;BME280;3131;42.630;23.382;2022-11-20T05:01:40;93720.48;;;17.30;100.00
6196;BME280;3131;42.630;23.382;2022-11-20T05:04:10;93719.20;;;17.22;100.00
6196;BME280;3131;42.630;23.382;2022-11-20T05:06:39;93726.70;;;17.19;100.00
6196;BME280;3131;42.630;23.382;2022-11-20T05:09:09;93703.93;;;17.13;100.00
6196;BME280;3131;42.630;23.382;2022-11-20T05:14:18;93716.50;;;16.94;100.00
6196;BME280;3131;42.630;23.382;2022-11-20T05:16:47;93716.65;;;16.89;100.00
6196;BME280;3131;42.630;23.382;2022-11-20T05:19:17;93703.89;;;16.77;100.00
6196;BME280;3131;42.630;23.382;2022-11-20T05:21:46;93692.08;;;16.59;100.00
6196;BME280;3131;42.630;23.382;2022-11-20T05:24:16;93685.01;;;16.33;100.00
6196;BME280;3131;42.630;23.382;2022-11-20T05:26:45;93675.58;;;16.17;100.00
6196;BME280;3131;42.630;23.382;2022-11-20T05:29:15;93669.64;;;15.96;100.00
6196;BME280;3131;42.630;23.382;2022-11-20T05:31:44;93655.30;;;15.87;100.00
6196;BME280;3131;42.630;23.382;2022-11-20T05:34:14;93651.13;;;15.77;100.00
6196;BME280;3131;42.630;23.382;2022-11-20T05:36:43;93653.31;;;15.68;100.00
6196;BME280;3131;42.630;23.382;2022-11-20T05:39:12;93650.86;;;15.59;100.00
6196;BME280;3131;42.630;23.382;2022-11-20T05:41:42;93654.48;;;15.56;100.00
6196;BME280;3131;42.630;23.382;2022-11-20T05:44:12;93653.50;;;15.49;100.00
6196;BME280;3131;42.630;23.382;2022-11-20T05:46:42;93661.56;;;15.44;100.00
6196;BME280;3131;42.630;23.382;2022-11-20T05:49:11;93648.37;;;15.41;100.00
6196;BME280;3131;42.630;23.382;2022-11-20T05:51:41;93647.59;;;15.44;100.00
6196;BME280;3131;42.630;23.382;2022-11-20T05:54:10;93652.25;;;15.53;100.00
6196;BME280;3131;42.630;23.382;2022-11-20T05:56:39;93640.08;;;15.61;100.00
6196;BME280;3131;42.630;23.382;2022-11-20T05:59:09;93631.31;;;15.59;100.00
6196;BME280;3131;42.630;23.382;2022-11-20T06:01:38;93646.55;;;15.55;100.00
6196;BME280;3131;42.630;23.382;2022-11-20T06:04:08;93644.63;;;15.53;100.00
6196;BME280;3131;42.630;23.382;2022-11-20T06:06:37;93638.93;;;15.55;100.00
6196;BME280;3131;42.630;23.382;2022-11-20T06:09:07;93642.75;;;15.59;100.00
6196;BME280;3131;42.630;23.382;2022-11-20T06:11:36;93664.36;;;15.63;100.00
6196;BME280;3131;42.630;23.382;2022-11-20T06:14:06;93654.38;;;15.66;100.00
6196;BME280;3131;42.630;23.382;2022-11-20T06:16:35;93653.89;;;15.66;100.00
6196;BME280;3131;42.630;23.382;2022-11-20T06:19:05;93663.02;;;15.73;100.00
6196;BME280;3131;42.630;23.382;2022-11-20T06:24:15;93661.80;;;15.85;100.00
6196;BME280;3131;42.630;23.382;2022-11-20T06:26:44;93670.70;;;15.85;100.00
6196;BME280;3131;42.630;23.382;2022-11-20T06:29:14;93675.34;;;15.90;100.00
6196;BME280;3131;42.630;23.382;2022-11-20T06:31:43;93679.47;;;15.91;100.00
6196;BME280;3131;42.630;23.382;2022-11-20T06:34:13;93682.49;;;15.94;100.00
6196;BME280;3131;42.630;23.382;2022-11-20T06:36:43;93680.48;;;16.02;100.00
6196;BME280;3131;42.630;23.382;2022-11-20T06:39:12;93683.06;;;16.14;100.00
6196;BME280;3131;42.630;23.382;2022-11-20T06:41:41;93684.35;;;16.27;100.00
6196;BME280;3131;42.630;23.382;2022-11-20T06:44:11;93688.03;;;16.36;100.00
6196;BME280;3131;42.630;23.382;2022-11-20T06:46:40;93681.87;;;16.51;100.00
6196;BME280;3131;42.630;23.382;2022-11-20T06:49:10;93680.63;;;16.67;100.00
6196;BME280;3131;42.630;23.382;2022-11-20T06:51:40;93682.43;;;16.75;100.00
6196;BME280;3131;42.630;23.382;2022-11-20T06:54:09;93681.00;;;16.85;100.00
6196;BME280;3131;42.630;23.382;2022-11-20T06:56:39;93681.31;;;16.86;100.00
6196;BME280;3131;42.630;23.382;2022-11-20T06:59:08;93691.66;;;16.92;100.00
6196;BME280;3131;42.630;23.382;2022-11-20T07:01:38;93699.78;;;17.08;100.00
6196;BME280;3131;42.630;23.382;2022-11-20T07:04:08;93701.53;;;17.08;100.00
6196;BME280;3131;42.630;23.382;2022-11-20T07:06:37;93712.84;;;17.30;100.00
6196;BME280;3131;42.630;23.382;2022-11-20T07:09:06;93711.87;;;17.43;100.00
6196;BME280;3131;42.630;23.382;2022-11-20T07:11:36;93723.98;;;17.45;100.00
6196;BME280;3131;42.630;23.382;2022-11-20T07:14:05;93724.91;;;17.64;100.00
6196;BME280;3131;42.630;23.382;2022-11-20T07:16:35;93724.59;;;17.80;100.00
6196;BME280;3131;42.630;23.382;2022-11-20T07:19:04;93718.50;;;17.85;100.00
6196;BME280;3131;42.630;23.382;2022-11-20T07:21:33;93713.59;;;17.79;100.00
6196;BME280;3131;42.630;23.382;2022-11-20T07:24:04;93726.97;;;17.73;100.00
6196;BME280;3131;42.630;23.382;2022-11-20T07:26:33;93730.33;;;17.70;100.00
6196;BME280;3131;42.630;23.382;2022-11-20T07:29:03;93729.03;;;17.74;100.00
6196;BME280;3131;42.630;23.382;2022-11-20T07:31:32;93721.69;;;17.75;100.00
6196;BME280;3131;42.630;23.382;2022-11-20T07:34:02;93720.28;;;17.68;100.00
6196;BME280;3131;42.630;23.382;2022-11-20T07:36:31;93722.50;;;17.63;100.00
6196;BME280;3131;42.630;23.382;2022-11-20T07:39:01;93725.86;;;17.68;100.00
6196;BME280;3131;42.630;23.382;2022-11-20T07:41:32;93725.84;;;17.72;100.00
6196;BME280;3131;42.630;23.382;2022-11-20T07:44:01;93719.00;;;17.68;100.00
6196;BME280;3131;42.630;23.382;2022-11-20T07:46:31;93719.45;;;17.76;100.00
6196;BME280;3131;42.630;23.382;2022-11-20T07:49:02;93722.66;;;17.82;100.00
6196;BME280;3131;42.630;23.382;2022-11-20T07:51:33;93724.90;;;17.81;100.00
6196;BME280;3131;42.630;23.382;2022-11-20T07:54:10;93716.28;;;17.82;100.00
6196;BME280;3131;42.630;23.382;2022-11-20T07:56:39;93720.45;;;17.67;100.00
6196;BME280;3131;42.630;23.382;2022-11-20T07:59:08;93719.83;;;17.60;100.00
6196;BME280;3131;42.630;23.382;2022-11-20T08:01:39;93729.69;;;17.68;100.00
6196;BME280;3131;42.630;23.382;2022-11-20T08:04:09;93734.63;;;17.77;100.00
6196;BME280;3131;42.630;23.382;2022-11-20T08:06:39;93735.12;;;17.77;100.00
6196;BME280;3131;42.630;23.382;2022-11-20T08:09:09;93727.11;;;17.92;100.00
6196;BME280;3131;42.630;23.382;2022-11-20T08:11:38;93732.60;;;18.16;100.00
6196;BME280;3131;42.630;23.382;2022-11-20T08:17:23;93723.85;;;19.27;100.00
6196;BME280;3131;42.630;23.382;2022-11-20T08:19:52;93726.81;;;19.77;100.00
6196;BME280;3131;42.630;23.382;2022-11-20T08:22:22;93730.09;;;19.62;100.00
6196;BME280;3131;42.630;23.382;2022-11-20T08:24:51;93741.86;;;19.53;100.00
6196;BME280;3131;42.630;23.382;2022-11-20T08:27:20;93733.98;;;19.39;100.00
6196;BME280;3131;42.630;23.382;2022-11-20T08:29:50;93743.03;;;19.46;100.00
6196;BME280;3131;42.630;23.382;2022-11-20T08:34:57;93765.41;;;20.96;100.00
6196;BME280;3131;42.630;23.382;2022-11-20T08:37:26;93771.93;;;21.46;99.41
6196;BME280;3131;42.630;23.382;2022-11-20T08:39:55;93777.43;;;20.85;96.99
6196;BME280;3131;42.630;23.382;2022-11-20T08:42:25;93777.06;;;20.48;98.21
6196;BME280;3131;42.630;23.382;2022-11-20T08:44:55;93781.66;;;20.67;100.00
6196;BME280;3131;42.630;23.382;2022-11-20T08:47:24;93782.89;;;20.41;100.00
6196;BME280;3131;42.630;23.382;2022-11-20T08:49:53;93793.38;;;19.87;100.00
6196;BME280;3131;42.630;23.382;2022-11-20T08:52:23;93810.67;;;19.66;100.00
6196;BME280;3131;42.630;23.382;2022-11-20T08:54:52;93813.94;;;19.52;100.00
6196;BME280;3131;42.630;23.382;2022-11-20T08:57:21;93829.55;;;19.38;100.00
6196;BME280;3131;42.630;23.382;2022-11-20T08:59:51;93817.18;;;19.23;100.00
6196;BME280;3131;42.630;23.382;2022-11-20T09:02:22;93808.61;;;19.16;100.00
6196;BME280;3131;42.630;23.382;2022-11-20T09:04:53;93812.50;;;18.72;100.00
6196;BME280;3131;42.630;23.382;2022-11-20T09:07:23;93809.51;;;18.56;100.00
6196;BME280;3131;42.630;23.382;2022-11-20T09:09:52;93810.43;;;18.64;100.00
6196;BME280;3131;42.630;23.382;2022-11-20T09:12:22;93801.56;;;18.47;100.00
6196;BME280;3131;42.630;23.382;2022-11-20T09:14:51;93807.66;;;18.38;100.00
6196;BME280;3131;42.630;23.382;2022-11-20T09:20:01;93789.05;;;18.21;100.00
6196;BME280;3131;42.630;23.382;2022-11-20T09:22:32;93802.18;;;17.85;100.00
6196;BME280;3131;42.630;23.382;2022-11-20T09:27:42;93775.17;;;18.24;100.00
6196;BME280;3131;42.630;23.382;2022-11-20T09:33:01;93786.78;;;18.78;100.00
6196;BME280;3131;42.630;23.382;2022-11-20T09:35:33;93796.81;;;19.11;100.00
6196;BME280;3131;42.630;23.382;2022-11-20T09:40:53;93780.41;;;19.47;100.00
6196;BME280;3131;42.630;23.382;2022-11-20T09:46:13;93781.78;;;19.58;100.00
6196;BME280;3131;42.630;23.382;2022-11-20T09:51:39;93777.18;;;19.76;100.00
6196;BME280;3131;42.630;23.382;2022-11-20T09:56:59;93782.64;;;20.51;100.00
6196;BME280;3131;42.630;23.382;2022-11-20T10:02:25;93768.55;;;19.92;100.00
6196;BME280;3131;42.630;23.382;2022-11-20T10:04:57;93752.88;;;20.35;100.00
6196;BME280;3131;42.630;23.382;2022-11-20T10:07:30;93767.55;;;22.17;100.00
6196;BME280;3131;42.630;23.382;2022-11-20T10:10:00;93798.22;;;22.74;100.00
6196;BME280;3131;42.630;23.382;2022-11-20T10:12:33;93793.22;;;22.17;100.00
6196;BME280;3131;42.630;23.382;2022-11-20T10:15:16;93766.36;;;22.37;99.67
6196;BME280;3131;42.630;23.382;2022-11-20T10:17:54;93754.53;;;22.25;100.00
6196;BME280;3131;42.630;23.382;2022-11-20T10:20:28;93767.11;;;22.31;100.00
6196;BME280;3131;42.630;23.382;2022-11-20T10:23:17;93754.00;;;21.91;100.00
6196;BME280;3131;42.630;23.382;2022-11-20T10:28:28;93728.02;;;20.91;100.00
6196;BME280;3131;42.630;23.382;2022-11-20T10:33:44;93742.14;;;20.36;100.00
6196;BME280;3131;42.630;23.382;2022-11-20T10:41:49;93752.23;;;20.78;100.00
6196;BME280;3131;42.630;23.382;2022-11-20T10:44:21;93745.89;;;20.84;100.00
6196;BME280;3131;42.630;23.382;2022-11-20T10:50:02;93742.25;;;20.13;100.00
6196;BME280;3131;42.630;23.382;2022-11-20T10:55:29;93749.90;;;20.72;100.00
6196;BME280;3131;42.630;23.382;2022-11-20T11:00:49;93726.90;;;19.27;100.00
6196;BME280;3131;42.630;23.382;2022-11-20T11:03:24;93742.85;;;19.06;100.00
6196;BME280;3131;42.630;23.382;2022-11-20T11:05:58;93763.03;;;18.96;100.00
6196;BME280;3131;42.630;23.382;2022-11-20T11:08:32;93772.01;;;19.19;100.00
6196;BME280;3131;42.630;23.382;2022-11-20T11:11:02;93772.59;;;18.67;100.00
6196;BME280;3131;42.630;23.382;2022-11-20T11:13:32;93773.09;;;18.19;100.00
6196;BME280;3131;42.630;23.382;2022-11-20T11:16:02;93778.44;;;17.69;100.00
6196;BME280;3131;42.630;23.382;2022-11-20T11:18:33;93781.47;;;17.44;100.00
6196;BME280;3131;42.630;23.382;2022-11-20T11:21:04;93792.73;;;16.96;100.00
6196;BME280;3131;42.630;23.382;2022-11-20T11:23:35;93810.44;;;16.25;100.00
6196;BME280;3131;42.630;23.382;2022-11-20T11:26:07;93789.80;;;15.76;100.00
6196;BME280;3131;42.630;23.382;2022-11-20T11:28:37;93736.51;;;15.44;100.00
6196;BME280;3131;42.630;23.382;2022-11-20T11:31:07;93705.69;;;15.17;100.00
6196;BME280;3131;42.630;23.382;2022-11-20T11:33:36;93690.95;;;14.99;100.00
6196;BME280;3131;42.630;23.382;2022-11-20T11:38:55;93718.69;;;14.47;100.00
6196;BME280;3131;42.630;23.382;2022-11-20T11:41:28;93759.70;;;14.14;100.00
6196;BME280;3131;42.630;23.382;2022-11-20T11:44:01;93776.69;;;13.94;100.00
6196;BME280;3131;42.630;23.382;2022-11-20T11:46:53;93765.67;;;13.76;100.00
6196;BME280;3131;42.630;23.382;2022-11-20T11:49:23;93768.28;;;13.37;100.00
6196;BME280;3131;42.630;23.382;2022-11-20T11:52:13;93756.73;;;13.10;100.00
6196;BME280;3131;42.630;23.382;2022-11-20T11:57:28;93731.42;;;12.81;100.00
6196;BME280;3131;42.630;23.382;2022-11-20T12:02:56;93733.52;;;13.00;100.00
6196;BME280;3131;42.630;23.382;2022-11-20T12:08:11;93706.13;;;12.81;100.00
6196;BME280;3131;42.630;23.382;2022-11-20T12:10:45;93706.70;;;12.49;100.00
6196;BME280;3131;42.630;23.382;2022-11-20T12:13:24;93697.52;;;12.48;100.00
6196;BME280;3131;42.630;23.382;2022-11-20T12:15:54;93715.70;;;12.48;100.00
6196;BME280;3131;42.630;23.382;2022-11-20T12:18:23;93678.98;;;12.63;100.00
6196;BME280;3131;42.630;23.382;2022-11-20T12:21:01;93706.41;;;12.33;100.00
6196;BME280;3131;42.630;23.382;2022-11-20T12:23:34;93748.22;;;12.37;100.00
6196;BME280;3131;42.630;23.382;2022-11-20T12:26:05;93741.73;;;12.29;100.00
6196;BME280;3131;42.630;23.382;2022-11-20T12:28:41;93757.78;;;12.08;100.00
6196;BME280;3131;42.630;23.382;2022-11-20T12:31:28;93714.58;;;11.96;100.00
6196;BME280;3131;42.630;23.382;2022-11-20T12:34:14;93734.40;;;11.85;100.00
6196;BME280;3131;42.630;23.382;2022-11-20T12:39:35;93712.42;;;11.92;100.00
6196;BME280;3131;42.630;23.382;2022-11-20T12:42:26;93711.99;;;11.71;100.00
6196;BME280;3131;42.630;23.382;2022-11-20T12:45:24;93660.84;;;11.63;100.00
6196;BME280;3131;42.630;23.382;2022-11-20T12:48:14;93607.92;;;11.52;100.00
6196;BME280;3131;42.630;23.382;2022-11-20T12:50:48;93624.11;;;11.65;100.00
6196;BME280;3131;42.630;23.382;2022-11-20T12:53:24;93626.31;;;11.64;100.00
6196;BME280;3131;42.630;23.382;2022-11-20T12:55:56;93710.91;;;11.64;100.00
6196;BME280;3131;42.630;23.382;2022-11-20T12:58:31;93697.81;;;11.80;100.00
6196;BME280;3131;42.630;23.382;2022-11-20T13:01:02;93700.00;;;11.94;100.00
6196;BME280;3131;42.630;23.382;2022-11-20T13:06:20;93654.83;;;12.11;100.00
6196;BME280;3131;42.630;23.382;2022-11-20T13:11:41;93647.09;;;12.66;100.00
6196;BME280;3131;42.630;23.382;2022-11-20T13:17:09;93672.23;;;13.26;100.00
6196;BME280;3131;42.630;23.382;2022-11-20T13:19:40;93704.48;;;13.47;100.00
6196;BME280;3131;42.630;23.382;2022-11-20T13:22:10;93719.03;;;13.45;100.00
6196;BME280;3131;42.630;23.382;2022-11-20T13:24:39;93709.39;;;13.35;100.00
6196;BME280;3131;42.630;23.382;2022-11-20T13:27:21;93718.23;;;13.16;100.00
6196;BME280;3131;42.630;23.382;2022-11-20T13:30:13;93709.77;;;13.21;100.00
6196;BME280;3131;42.630;23.382;2022-11-20T13:32:56;93732.38;;;13.28;100.00
6196;BME280;3131;42.630;23.382;2022-11-20T13:35:32;93741.10;;;13.39;100.00
6196;BME280;3131;42.630;23.382;2022-11-20T13:38:07;93732.66;;;13.58;100.00
6196;BME280;3131;42.630;23.382;2022-11-20T13:40:38;93732.52;;;13.60;100.00
6196;BME280;3131;42.630;23.382;2022-11-20T13:43:28;93729.14;;;13.55;100.00
6196;BME280;3131;42.630;23.382;2022-11-20T13:46:00;93726.00;;;13.47;100.00
6196;BME280;3131;42.630;23.382;2022-11-20T13:48:32;93740.67;;;13.44;100.00
6196;BME280;3131;42.630;23.382;2022-11-20T13:51:16;93737.50;;;13.42;100.00
6196;BME280;3131;42.630;23.382;2022-11-20T13:57:01;93746.14;;;13.49;100.00
6196;BME280;3131;42.630;23.382;2022-11-20T14:02:25;93738.09;;;13.40;100.00
6196;BME280;3131;42.630;23.382;2022-11-20T14:04:56;93761.48;;;13.38;100.00
6196;BME280;3131;42.630;23.382;2022-11-20T14:07:31;93769.44;;;13.29;100.00
6196;BME280;3131;42.630;23.382;2022-11-20T14:09:58;93767.34;;;13.29;100.00
6196;BME280;3131;42.630;23.382;2022-11-20T14:12:30;93746.30;;;13.28;100.00
6196;BME280;3131;42.630;23.382;2022-11-20T14:15:00;93746.83;;;13.32;100.00
6196;BME280;3131;42.630;23.382;2022-11-20T14:17:33;93743.77;;;13.28;100.00
6196;BME280;3131;42.630;23.382;2022-11-20T14:20:05;93739.50;;;13.29;100.00
6196;BME280;3131;42.630;23.382;2022-11-20T14:22:35;93738.44;;;13.31;100.00
6196;BME280;3131;42.630;23.382;2022-11-20T14:25:17;93733.25;;;13.33;100.00
6196;BME280;3131;42.630;23.382;2022-11-20T14:27:38;93741.38;;;13.27;100.00
6196;BME280;3131;42.630;23.382;2022-11-20T14:30:15;93744.70;;;13.27;100.00
6196;BME280;3131;42.630;23.382;2022-11-20T14:32:46;93743.02;;;13.32;100.00
6196;BME280;3131;42.630;23.382;2022-11-20T14:35:20;93744.17;;;13.33;100.00
6196;BME280;3131;42.630;23.382;2022-11-20T14:37:49;93747.56;;;13.28;100.00
6196;BME280;3131;42.630;23.382;2022-11-20T14:40:28;93740.59;;;13.26;100.00
6196;BME280;3131;42.630;23.382;2022-11-20T14:42:59;93745.77;;;13.34;100.00
6196;BME280;3131;42.630;23.382;2022-11-20T14:45:28;93741.23;;;13.28;100.00
6196;BME280;3131;42.630;23.382;2022-11-20T14:47:58;93748.71;;;13.30;100.00
6196;BME280;3131;42.630;23.382;2022-11-20T14:50:29;93754.28;;;13.23;100.00